createdAt,value
2022-11-25T06:39:57.451Z,3.28
2022-11-25T06:42:27.321Z,3.33
2022-11-25T06:44:56.961Z,3.38
2022-11-25T06:47:26.787Z,3.43
2022-11-25T06:49:56.580Z,3.47
2022-11-25T06:52:25.120Z,3.51
2022-11-25T06:54:54.212Z,3.56
2022-11-25T06:57:23.919Z,3.59
2022-11-25T06:59:53.646Z,3.61
2022-11-25T07:02:23.459Z,3.62
2022-11-25T07:04:54.178Z,3.61
2022-11-25T07:07:22.732Z,3.61
2022-11-25T07:09:52.605Z,3.58
2022-11-25T07:12:21.763Z,3.56
2022-11-25T07:14:52.108Z,3.55
2022-11-25T07:17:22.037Z,3.55
2022-11-25T07:19:51.829Z,3.57
2022-11-25T07:22:21.619Z,3.58
2022-11-25T07:24:51.613Z,3.60
2022-11-25T07:27:20.299Z,3.63
2022-11-25T07:30:03.533Z,3.66
2022-11-25T07:32:41.795Z,3.68
2022-11-25T07:35:13.393Z,3.70
2022-11-25T07:37:45.013Z,3.71
2022-11-25T07:40:14.418Z,3.74
2022-11-25T07:42:44.571Z,3.74
2022-11-25T07:45:14.613Z,3.73
2022-11-25T07:47:47.614Z,3.71
2022-11-25T07:50:17.598Z,3.71
2022-11-25T07:52:47.361Z,3.81
2022-11-25T07:55:17.182Z,3.84
2022-11-25T07:57:45.695Z,3.82
2022-11-25T08:00:16.414Z,3.80
2022-11-25T08:02:46.497Z,3.77
2022-11-25T08:05:16.451Z,3.76
2022-11-25T08:07:46.038Z,3.75
2022-11-25T08:10:16.173Z,3.75
2022-11-25T08:12:46.273Z,3.75
2022-11-25T08:15:16.118Z,3.77
2022-11-25T08:17:46.416Z,3.79
2022-11-25T08:20:16.302Z,3.80
2022-11-25T08:22:46.397Z,3.82
2022-11-25T08:25:15.019Z,3.85
2022-11-25T08:27:48.006Z,3.88
2022-11-25T08:30:18.094Z,3.89
2022-11-25T08:32:48.113Z,3.91
2022-11-25T08:35:16.977Z,3.90
2022-11-25T08:37:47.406Z,3.88
2022-11-25T08:40:16.429Z,3.87
2022-11-25T08:42:47.312Z,3.88
2022-11-25T08:45:17.450Z,3.86
2022-11-25T08:47:47.451Z,3.84
2022-11-25T08:50:17.854Z,3.85
2022-11-25T08:52:48.324Z,3.83
2022-11-25T08:55:18.504Z,3.84
2022-11-25T08:57:48.563Z,3.83
2022-11-25T09:00:18.795Z,3.88
2022-11-25T09:02:48.661Z,3.92
2022-11-25T09:05:18.199Z,3.97
2022-11-25T09:07:48.242Z,4.01
2022-11-25T09:10:19.757Z,4.04
2022-11-25T09:12:49.466Z,4.05
2022-11-25T09:15:19.271Z,4.08
2022-11-25T09:17:49.076Z,4.08
2022-11-25T09:20:18.983Z,4.09
2022-11-25T09:22:48.534Z,4.07
2022-11-25T09:25:17.912Z,4.07
2022-11-25T09:27:47.604Z,4.06
2022-11-25T09:30:17.742Z,4.08
2022-11-25T09:32:50.736Z,4.05
2022-11-25T09:35:23.790Z,4.01
2022-11-25T09:37:53.497Z,3.97
2022-11-25T09:40:55.835Z,3.98
2022-11-25T09:43:59.670Z,3.94
2022-11-25T09:46:44.825Z,3.88
2022-11-25T09:49:36.581Z,3.85
2022-11-25T09:52:37.820Z,3.81
2022-11-25T09:55:18.928Z,3.76
2022-11-25T09:57:59.136Z,3.76
2022-11-25T10:00:43.151Z,3.81
2022-11-25T10:03:38.431Z,3.92
2022-11-25T10:06:16.989Z,4.05
2022-11-25T10:08:50.383Z,4.10
2022-11-25T10:11:23.575Z,4.14
2022-11-25T10:14:01.991Z,4.19
2022-11-25T10:16:53.285Z,4.22
2022-11-25T10:19:29.019Z,4.25
2022-11-25T10:21:58.912Z,4.25
2022-11-25T10:24:29.611Z,4.24
2022-11-25T10:27:06.456Z,4.25
2022-11-25T10:29:38.754Z,4.30
2022-11-25T10:32:24.709Z,4.32
2022-11-25T10:35:00.943Z,4.33
2022-11-25T10:37:37.439Z,4.44
2022-11-25T10:40:08.528Z,4.74
2022-11-25T10:42:38.520Z,4.85
2022-11-25T10:45:09.543Z,5.01
2022-11-25T10:48:12.775Z,5.16
2022-11-25T10:51:03.149Z,5.41
2022-11-25T10:53:33.091Z,5.34
2022-11-25T10:56:18.760Z,5.33
2022-11-25T10:58:48.700Z,5.31
2022-11-25T11:01:21.037Z,5.30
2022-11-25T11:04:04.412Z,5.25
2022-11-25T11:06:38.339Z,5.19
2022-11-25T11:09:31.198Z,5.13
2022-11-25T11:12:22.813Z,5.07
2022-11-25T11:15:16.176Z,4.98
2022-11-25T11:17:49.474Z,4.88
2022-11-25T11:20:29.221Z,4.85
2022-11-25T11:23:15.835Z,4.80
2022-11-25T11:26:09.957Z,4.87
2022-11-25T11:28:41.533Z,5.16
2022-11-25T11:31:27.648Z,5.24
2022-11-25T11:34:28.234Z,5.19
2022-11-25T11:37:44.678Z,5.32
2022-11-25T11:40:46.907Z,5.65
2022-11-25T11:43:56.793Z,5.91
2022-11-25T11:46:48.920Z,6.02
2022-11-25T11:49:30.586Z,6.08
2022-11-25T11:52:21.621Z,6.19
2022-11-25T11:54:59.939Z,6.07
2022-11-25T11:58:22.199Z,6.02
2022-11-25T12:01:03.280Z,6.31
2022-11-25T12:03:41.648Z,6.47
2022-11-25T12:06:12.693Z,6.46
2022-11-25T12:09:00.147Z,6.46
2022-11-25T12:11:50.116Z,6.57
2022-11-25T12:14:43.859Z,6.73
2022-11-25T12:17:33.115Z,6.91
2022-11-25T12:20:31.559Z,7.01
2022-11-25T12:23:24.237Z,7.07
2022-11-25T12:26:02.480Z,7.09
2022-11-25T12:28:46.677Z,7.09
2022-11-25T12:32:01.840Z,7.07
2022-11-25T12:34:52.076Z,6.96
2022-11-25T12:37:50.138Z,6.71
2022-11-25T12:40:35.153Z,6.73
2022-11-25T12:43:23.901Z,6.84
2022-11-25T12:46:21.877Z,6.91
2022-11-25T12:48:54.613Z,6.98
2022-11-25T12:51:54.759Z,7.01
2022-11-25T12:54:43.114Z,6.86
2022-11-25T12:57:34.217Z,6.81
2022-11-25T13:00:42.306Z,6.87
2022-11-25T13:03:32.472Z,6.86
2022-11-25T13:06:39.009Z,6.64
2022-11-25T13:09:31.085Z,6.37
2022-11-25T13:12:14.761Z,6.18
2022-11-25T13:15:05.143Z,6.19
2022-11-25T13:17:42.152Z,6.37
2022-11-25T13:20:31.084Z,6.49
2022-11-25T13:23:05.899Z,6.58
2022-11-25T13:25:36.816Z,6.60
2022-11-25T13:28:29.051Z,6.60
2022-11-25T13:31:20.718Z,6.58
2022-11-25T13:33:52.943Z,6.48
2022-11-25T13:36:25.186Z,6.39
2022-11-25T13:38:54.725Z,6.26
2022-11-25T13:41:34.489Z,6.12
2022-11-25T13:44:28.934Z,5.99
2022-11-25T13:47:02.152Z,5.85
2022-11-25T13:49:46.281Z,5.71
2022-11-25T13:52:17.372Z,5.55
2022-11-25T13:54:56.068Z,5.43
2022-11-25T13:57:31.872Z,5.28
2022-11-25T14:00:21.303Z,5.19
2022-11-25T14:02:51.602Z,5.12
2022-11-25T14:05:44.450Z,5.03
2022-11-25T14:08:45.833Z,4.93
2022-11-25T14:11:48.639Z,4.85
2022-11-25T14:14:33.930Z,4.79
2022-11-25T14:17:31.594Z,4.73
2022-11-25T14:20:14.129Z,4.65
2022-11-25T14:23:02.362Z,4.57
2022-11-25T14:25:54.855Z,4.49
2022-11-25T14:28:43.274Z,4.44
2022-11-25T14:31:18.764Z,4.37
2022-11-25T14:34:05.821Z,4.32
2022-11-25T14:37:01.144Z,4.26
2022-11-25T14:39:54.171Z,4.17
2022-11-25T14:42:28.481Z,4.09
2022-11-25T14:45:01.348Z,4.04
2022-11-25T14:47:38.676Z,3.99
2022-11-25T14:53:10.157Z,3.86
2022-11-25T14:55:41.265Z,3.83
2022-11-25T14:58:13.683Z,3.79
2022-11-25T15:01:01.858Z,3.72
2022-11-25T15:03:32.036Z,3.65
2022-11-25T15:06:05.454Z,3.57
2022-11-25T15:08:44.642Z,3.51
2022-11-25T15:11:27.433Z,3.46
2022-11-25T15:14:04.483Z,3.41
2022-11-25T15:16:36.795Z,3.36
2022-11-25T15:19:16.972Z,3.29
2022-11-25T15:22:21.273Z,3.21
2022-11-25T15:24:43.987Z,3.13
2022-11-25T15:27:28.190Z,3.05
2022-11-25T15:29:58.118Z,2.98
2022-11-25T15:32:31.465Z,2.95
2022-11-25T15:35:02.703Z,2.92
2022-11-25T15:37:32.834Z,2.87
2022-11-25T15:40:36.906Z,2.80
2022-11-25T15:43:35.098Z,2.69
2022-11-25T15:46:07.494Z,2.63
2022-11-25T15:48:47.155Z,2.59
2022-11-25T15:51:33.422Z,2.55
2022-11-25T15:54:23.779Z,2.56
2022-11-25T15:56:59.607Z,2.57
2022-11-25T15:59:57.030Z,2.57
2022-11-25T16:02:30.554Z,2.56
2022-11-25T16:05:15.209Z,2.55
2022-11-25T16:07:54.043Z,2.51
2022-11-25T16:10:29.607Z,2.49
2022-11-25T16:13:30.249Z,2.46
2022-11-25T16:16:12.382Z,2.39
2022-11-25T16:19:02.903Z,2.34
2022-11-25T16:21:39.133Z,2.30
2022-11-25T16:24:21.126Z,2.26
2022-11-25T16:27:11.497Z,2.24
2022-11-25T16:29:51.084Z,2.22
2022-11-25T16:32:25.069Z,2.21
2022-11-25T16:34:58.583Z,2.20
2022-11-25T16:37:28.958Z,2.18
2022-11-25T16:39:59.160Z,2.15
2022-11-25T16:42:34.740Z,2.14
2022-11-25T16:45:25.106Z,2.10
2022-11-25T16:47:58.053Z,2.05
2022-11-25T16:50:27.830Z,1.98
2022-11-25T16:52:58.009Z,1.92
2022-11-25T16:55:28.042Z,1.90
2022-11-25T16:57:58.079Z,1.88
2022-11-25T17:00:28.104Z,1.87
2022-11-25T17:02:57.944Z,1.85
2022-11-25T17:05:28.015Z,1.73
2022-11-25T17:07:59.135Z,1.63
2022-11-25T17:10:29.032Z,1.60
2022-11-25T17:12:58.663Z,1.60
2022-11-25T17:15:37.876Z,1.58
2022-11-25T17:18:08.493Z,1.59
2022-11-25T17:20:39.136Z,1.59
2022-11-25T17:23:14.392Z,1.58
2022-11-25T17:25:48.132Z,1.53
2022-11-25T17:28:20.457Z,1.47
2022-11-25T17:30:50.778Z,1.37
2022-11-25T17:33:20.829Z,1.30
2022-11-25T17:35:51.517Z,1.26
2022-11-25T17:38:21.830Z,1.25
2022-11-25T17:40:51.943Z,1.24
2022-11-25T17:43:22.371Z,1.24
2022-11-25T17:45:54.235Z,1.24
2022-11-25T17:48:24.957Z,1.25
2022-11-25T17:50:55.172Z,1.23
2022-11-25T17:53:25.063Z,1.19
2022-11-25T17:55:54.946Z,1.14
2022-11-25T17:58:24.930Z,1.13
2022-11-25T18:00:54.699Z,1.07
2022-11-25T18:03:25.435Z,0.99
2022-11-25T18:05:54.065Z,0.92
2022-11-25T18:08:23.379Z,0.89
2022-11-25T18:10:53.616Z,0.85
2022-11-25T18:13:23.481Z,0.82
2022-11-25T18:15:53.735Z,0.78
2022-11-25T18:18:25.875Z,0.77
2022-11-25T18:20:56.559Z,0.77
2022-11-25T18:23:26.503Z,0.78
2022-11-25T18:26:00.939Z,0.77
2022-11-25T18:28:32.373Z,0.76
2022-11-25T18:31:05.654Z,0.76
2022-11-25T18:33:35.382Z,0.76
2022-11-25T18:36:04.960Z,0.77
2022-11-25T18:38:34.991Z,0.79
2022-11-25T18:41:04.281Z,0.79
2022-11-25T18:43:35.289Z,0.82
2022-11-25T18:46:05.472Z,0.82
2022-11-25T18:48:36.140Z,0.83
2022-11-25T18:51:06.240Z,0.82
2022-11-25T18:53:36.073Z,0.84
2022-11-25T18:56:05.914Z,0.84
2022-11-25T18:58:34.513Z,0.81
2022-11-25T19:01:06.842Z,0.79
2022-11-25T19:03:36.545Z,0.77
2022-11-25T19:06:06.773Z,0.77
2022-11-25T19:08:36.524Z,0.78
2022-11-25T19:11:13.575Z,0.80
2022-11-25T19:13:51.420Z,0.81
2022-11-25T19:16:23.066Z,0.82
2022-11-25T19:18:53.209Z,0.83
2022-11-25T19:21:24.759Z,0.85
2022-11-25T19:23:54.825Z,0.85
2022-11-25T19:26:34.719Z,0.83
2022-11-25T19:29:08.383Z,0.80
2022-11-25T19:31:38.323Z,0.76
2022-11-25T19:34:09.711Z,0.75
2022-11-25T19:36:38.288Z,0.75
2022-11-25T19:39:18.785Z,0.74
2022-11-25T19:41:48.944Z,0.74
2022-11-25T19:44:19.252Z,0.72
2022-11-25T19:47:14.468Z,0.70
2022-11-25T19:49:41.672Z,0.69
2022-11-25T19:52:23.850Z,0.69
2022-11-25T19:54:54.938Z,0.69
2022-11-25T19:57:25.634Z,0.69
2022-11-25T19:59:55.675Z,0.67
2022-11-25T20:02:26.990Z,0.67
2022-11-25T20:04:57.655Z,0.65
2022-11-25T20:07:30.298Z,0.63
2022-11-25T20:10:30.679Z,0.59
2022-11-25T20:13:00.653Z,0.55
2022-11-25T20:15:30.353Z,0.51
2022-11-25T20:18:01.733Z,0.49
2022-11-25T20:20:38.461Z,0.46
2022-11-25T20:23:21.621Z,0.42
2022-11-25T20:25:51.706Z,0.40
2022-11-25T20:28:24.049Z,0.37
2022-11-25T20:30:54.608Z,0.34
2022-11-25T20:33:25.051Z,0.32
2022-11-25T20:36:07.361Z,0.29
2022-11-25T20:38:47.604Z,0.27
2022-11-25T20:41:21.745Z,0.24
2022-11-25T20:43:58.280Z,0.21
2022-11-25T20:46:30.353Z,0.20
2022-11-25T20:49:03.555Z,0.20
2022-11-25T20:51:33.275Z,0.19
2022-11-25T20:54:03.369Z,0.15
2022-11-25T20:56:34.777Z,0.12
2022-11-25T20:59:22.174Z,0.09
2022-11-25T21:01:53.934Z,0.06
2022-11-25T21:04:24.031Z,0.06
2022-11-25T21:06:53.811Z,0.05
2022-11-25T21:09:28.022Z,0.05
2022-11-25T21:11:57.816Z,0.05
2022-11-25T21:14:27.703Z,0.04
2022-11-25T21:16:57.008Z,0.02
2022-11-25T21:19:26.702Z,0.01
2022-11-25T21:21:56.386Z,0.02
2022-11-25T21:24:37.735Z,0.03
2022-11-25T21:27:14.584Z,0.04
2022-11-25T21:29:46.347Z,0.04
2022-11-25T21:32:23.842Z,0.03
2022-11-25T21:34:54.239Z,0.03
2022-11-25T21:37:32.423Z,0.03
2022-11-25T21:40:01.992Z,-0.00
2022-11-25T21:42:32.875Z,-0.04
2022-11-25T21:45:02.621Z,-0.02
2022-11-25T21:47:32.466Z,-0.01
2022-11-25T21:50:02.756Z,-0.01
2022-11-25T21:52:32.575Z,-0.00
2022-11-25T21:55:02.502Z,0.01
2022-11-25T21:57:32.256Z,0.04
2022-11-25T22:00:02.025Z,0.06
2022-11-25T22:02:35.460Z,0.09
2022-11-25T22:05:14.191Z,0.14
2022-11-25T22:07:44.770Z,0.20
2022-11-25T22:10:15.764Z,0.25
2022-11-25T22:12:47.510Z,0.30
2022-11-25T22:15:22.095Z,0.36
2022-11-25T22:17:56.443Z,0.42
2022-11-25T22:20:29.072Z,0.46
2022-11-25T22:22:58.820Z,0.51
2022-11-25T22:25:31.659Z,0.58
2022-11-25T22:28:00.858Z,0.63
2022-11-25T22:30:32.621Z,0.67
2022-11-25T22:33:03.849Z,0.72
2022-11-25T22:35:33.617Z,0.74
2022-11-25T22:38:03.582Z,0.75
2022-11-25T22:40:33.391Z,0.79
2022-11-25T22:43:02.547Z,0.83
2022-11-25T22:45:34.163Z,0.87
2022-11-25T22:48:07.182Z,0.89
2022-11-25T22:50:36.937Z,0.89
2022-11-25T22:53:21.981Z,0.90
2022-11-25T22:56:02.783Z,0.91
2022-11-25T22:58:32.947Z,0.92
2022-11-25T23:01:03.012Z,0.92
2022-11-25T23:03:34.540Z,0.94
2022-11-25T23:06:04.382Z,0.95
2022-11-25T23:08:36.170Z,0.95
2022-11-25T23:11:06.988Z,0.96
2022-11-25T23:13:36.997Z,0.98
2022-11-25T23:16:07.258Z,1.01
2022-11-25T23:18:39.566Z,1.03
2022-11-25T23:21:23.717Z,1.01
2022-11-25T23:23:54.090Z,0.94
2022-11-25T23:26:24.337Z,0.94
2022-11-25T23:28:54.167Z,0.97
2022-11-25T23:31:26.054Z,1.00
2022-11-25T23:33:56.207Z,1.01
2022-11-25T23:36:30.818Z,1.01
2022-11-25T23:39:03.972Z,1.04
2022-11-25T23:41:34.987Z,1.07
2022-11-25T23:44:15.592Z,1.09
2022-11-25T23:46:45.695Z,1.09
2022-11-25T23:49:39.185Z,1.09
2022-11-25T23:52:14.249Z,1.10
2022-11-25T23:54:47.539Z,1.12
2022-11-25T23:57:30.907Z,1.14
